sensor_id;sensor_type;location;lat;lon;timestamp;temperature;humidity
1091;DHT22;534;48.704;9.122;2022-07-29T03:01:31;20.10;85.20
1091;DHT22;534;48.704;9.122;2022-07-29T03:04:03;20.10;85.30
1091;DHT22;534;48.704;9.122;2022-07-29T03:06:32;20.10;85.00
1091;DHT22;534;48.704;9.122;2022-07-29T03:09:00;20.20;85.00
1091;DHT22;534;48.704;9.122;2022-07-29T03:11:27;20.40;84.30
1091;DHT22;534;48.704;9.122;2022-07-29T03:13:54;20.60;83.70
1091;DHT22;534;48.704;9.122;2022-07-29T03:16:21;20.80;83.40
1091;DHT22;534;48.704;9.122;2022-07-29T03:18:50;20.90;82.20
1091;DHT22;534;48.704;9.122;2022-07-29T03:21:17;21.00;81.80
1091;DHT22;534;48.704;9.122;2022-07-29T03:23:44;21.00;81.60
1091;DHT22;534;48.704;9.122;2022-07-29T03:26:11;21.00;81.50
1091;DHT22;534;48.704;9.122;2022-07-29T03:28:38;21.10;81.20
1091;DHT22;534;48.704;9.122;2022-07-29T03:31:04;21.20;80.90
1091;DHT22;534;48.704;9.122;2022-07-29T03:33:31;21.10;80.70
1091;DHT22;534;48.704;9.122;2022-07-29T03:35:59;21.00;81.10
1091;DHT22;534;48.704;9.122;2022-07-29T03:38:29;20.90;81.40
1091;DHT22;534;48.704;9.122;2022-07-29T03:40:58;20.80;81.70
1091;DHT22;534;48.704;9.122;2022-07-29T03:43:30;20.70;82.10
1091;DHT22;534;48.704;9.122;2022-07-29T03:45:57;20.60;82.40
1091;DHT22;534;48.704;9.122;2022-07-29T03:48:26;20.60;82.40
1091;DHT22;534;48.704;9.122;2022-07-29T03:50:55;20.60;82.40
1091;DHT22;534;48.704;9.122;2022-07-29T03:53:23;20.70;82.20
1091;DHT22;534;48.704;9.122;2022-07-29T03:55:53;20.70;82.10
1091;DHT22;534;48.704;9.122;2022-07-29T03:58:21;20.60;82.10
1091;DHT22;534;48.704;9.122;2022-07-29T04:00:49;20.70;82.00
1091;DHT22;534;48.704;9.122;2022-07-29T04:03:16;20.70;81.60
1091;DHT22;534;48.704;9.122;2022-07-29T04:05:43;20.70;81.90
1091;DHT22;534;48.704;9.122;2022-07-29T04:08:09;20.80;81.40
1091;DHT22;534;48.704;9.122;2022-07-29T04:10:37;21.00;81.10
1091;DHT22;534;48.704;9.122;2022-07-29T04:13:04;21.00;80.70
1091;DHT22;534;48.704;9.122;2022-07-29T04:15:31;21.00;80.60
1091;DHT22;534;48.704;9.122;2022-07-29T04:17:58;20.90;80.60
1091;DHT22;534;48.704;9.122;2022-07-29T04:20:24;20.90;80.60
1091;DHT22;534;48.704;9.122;2022-07-29T04:22:51;20.80;80.60
1091;DHT22;534;48.704;9.122;2022-07-29T04:25:18;20.60;81.10
1091;DHT22;534;48.704;9.122;2022-07-29T04:27:46;20.50;81.50
1091;DHT22;534;48.704;9.122;2022-07-29T04:30:26;20.50;81.80
1091;DHT22;534;48.704;9.122;2022-07-29T04:32:53;20.50;81.60
1091;DHT22;534;48.704;9.122;2022-07-29T04:35:20;20.50;81.30
1091;DHT22;534;48.704;9.122;2022-07-29T04:37:47;20.70;80.90
1091;DHT22;534;48.704;9.122;2022-07-29T04:40:14;20.90;80.50
1091;DHT22;534;48.704;9.122;2022-07-29T04:42:41;21.00;80.00
1091;DHT22;534;48.704;9.122;2022-07-29T04:45:09;21.00;79.90
1091;DHT22;534;48.704;9.122;2022-07-29T04:47:36;21.00;80.10
1091;DHT22;534;48.704;9.122;2022-07-29T04:50:03;20.90;80.20
1091;DHT22;534;48.704;9.122;2022-07-29T04:52:30;20.90;80.50
1091;DHT22;534;48.704;9.122;2022-07-29T04:54:57;21.10;80.50
1091;DHT22;534;48.704;9.122;2022-07-29T04:57:23;21.30;79.90
1091;DHT22;534;48.704;9.122;2022-07-29T04:59:50;21.40;79.30
1091;DHT22;534;48.704;9.122;2022-07-29T05:02:18;21.20;79.40
1091;DHT22;534;48.704;9.122;2022-07-29T05:04:45;21.20;79.90
1091;DHT22;534;48.704;9.122;2022-07-29T05:07:11;21.20;80.00
1091;DHT22;534;48.704;9.122;2022-07-29T05:09:38;21.40;79.90
1091;DHT22;534;48.704;9.122;2022-07-29T05:12:06;21.30;79.40
1091;DHT22;534;48.704;9.122;2022-07-29T05:14:32;21.20;79.50
1091;DHT22;534;48.704;9.122;2022-07-29T05:16:59;21.20;80.20
1091;DHT22;534;48.704;9.122;2022-07-29T05:19:27;21.30;80.00
1091;DHT22;534;48.704;9.122;2022-07-29T05:21:54;21.20;79.80
1091;DHT22;534;48.704;9.122;2022-07-29T05:24:20;21.20;80.80
1091;DHT22;534;48.704;9.122;2022-07-29T05:26:47;21.40;79.70
1091;DHT22;534;48.704;9.122;2022-07-29T05:29:14;21.50;79.20
1091;DHT22;534;48.704;9.122;2022-07-29T05:31:41;21.70;78.00
1091;DHT22;534;48.704;9.122;2022-07-29T05:34:07;21.50;78.50
1091;DHT22;534;48.704;9.122;2022-07-29T05:36:35;21.40;79.70
1091;DHT22;534;48.704;9.122;2022-07-29T05:39:02;21.40;79.80
1091;DHT22;534;48.704;9.122;2022-07-29T05:41:31;21.50;79.60
1091;DHT22;534;48.704;9.122;2022-07-29T05:43:58;21.40;79.50
1091;DHT22;534;48.704;9.122;2022-07-29T05:46:25;21.40;80.00
1091;DHT22;534;48.704;9.122;2022-07-29T05:48:51;21.50;79.50
1091;DHT22;534;48.704;9.122;2022-07-29T05:51:18;21.70;78.70
1091;DHT22;534;48.704;9.122;2022-07-29T05:53:46;21.70;78.70
1091;DHT22;534;48.704;9.122;2022-07-29T05:56:12;21.60;79.50
1091;DHT22;534;48.704;9.122;2022-07-29T05:58:39;21.60;79.20
1091;DHT22;534;48.704;9.122;2022-07-29T06:01:06;21.80;79.50
1091;DHT22;534;48.704;9.122;2022-07-29T06:03:33;21.80;78.90
1091;DHT22;534;48.704;9.122;2022-07-29T06:05:59;22.10;78.80
1091;DHT22;534;48.704;9.122;2022-07-29T06:08:26;22.40;79.50
1091;DHT22;534;48.704;9.122;2022-07-29T06:10:54;22.70;77.90
1091;DHT22;534;48.704;9.122;2022-07-29T06:13:21;22.60;76.60
1091;DHT22;534;48.704;9.122;2022-07-29T06:15:47;22.30;77.90
1091;DHT22;534;48.704;9.122;2022-07-29T06:18:14;22.40;78.30
1091;DHT22;534;48.704;9.122;2022-07-29T06:20:41;22.80;77.60
1091;DHT22;534;48.704;9.122;2022-07-29T06:23:08;23.10;76.60
1091;DHT22;534;48.704;9.122;2022-07-29T06:25:35;23.10;77.10
1091;DHT22;534;48.704;9.122;2022-07-29T06:28:03;22.80;76.50
1091;DHT22;534;48.704;9.122;2022-07-29T06:30:30;22.50;77.40
1091;DHT22;534;48.704;9.122;2022-07-29T06:32:57;22.20;78.30
1091;DHT22;534;48.704;9.122;2022-07-29T06:35:23;22.20;79.10
1091;DHT22;534;48.704;9.122;2022-07-29T06:37:50;22.30;78.60
1091;DHT22;534;48.704;9.122;2022-07-29T06:40:17;22.50;78.40
1091;DHT22;534;48.704;9.122;2022-07-29T06:43:03;22.40;78.00
1091;DHT22;534;48.704;9.122;2022-07-29T06:45:29;22.40;78.20
1091;DHT22;534;48.704;9.122;2022-07-29T06:47:56;22.20;78.50
1091;DHT22;534;48.704;9.122;2022-07-29T06:50:23;22.10;79.00
1091;DHT22;534;48.704;9.122;2022-07-29T06:52:49;22.40;80.00
1091;DHT22;534;48.704;9.122;2022-07-29T06:55:16;22.60;78.20
1091;DHT22;534;48.704;9.122;2022-07-29T06:57:44;22.70;78.20
1091;DHT22;534;48.704;9.122;2022-07-29T07:00:14;22.80;77.60
1091;DHT22;534;48.704;9.122;2022-07-29T07:02:40;22.70;77.90
1091;DHT22;534;48.704;9.122;2022-07-29T07:05:07;22.80;78.20
1091;DHT22;534;48.704;9.122;2022-07-29T07:07:34;23.10;78.10
1091;DHT22;534;48.704;9.122;2022-07-29T07:10:00;23.20;77.10
1091;DHT22;534;48.704;9.122;2022-07-29T07:12:27;23.50;77.00
1091;DHT22;534;48.704;9.122;2022-07-29T07:14:54;23.80;75.90
1091;DHT22;534;48.704;9.122;2022-07-29T07:17:22;23.90;75.10
1091;DHT22;534;48.704;9.122;2022-07-29T07:19:49;24.10;75.50
1091;DHT22;534;48.704;9.122;2022-07-29T07:22:16;23.90;75.10
1091;DHT22;534;48.704;9.122;2022-07-29T07:24:42;23.70;75.50
1091;DHT22;534;48.704;9.122;2022-07-29T07:27:09;23.70;75.70
1091;DHT22;534;48.704;9.122;2022-07-29T07:29:36;24.00;75.70
1091;DHT22;534;48.704;9.122;2022-07-29T07:32:06;24.30;76.20
1091;DHT22;534;48.704;9.122;2022-07-29T07:34:34;24.60;74.60
1091;DHT22;534;48.704;9.122;2022-07-29T07:37:03;24.80;73.70
1091;DHT22;534;48.704;9.122;2022-07-29T07:39:29;24.70;72.80
1091;DHT22;534;48.704;9.122;2022-07-29T07:41:56;24.60;73.40
1091;DHT22;534;48.704;9.122;2022-07-29T07:44:23;24.90;74.50
1091;DHT22;534;48.704;9.122;2022-07-29T07:46:49;25.20;73.60
1091;DHT22;534;48.704;9.122;2022-07-29T07:49:16;25.40;71.70
1091;DHT22;534;48.704;9.122;2022-07-29T07:51:44;25.70;70.50
1091;DHT22;534;48.704;9.122;2022-07-29T07:54:11;25.70;70.70
1091;DHT22;534;48.704;9.122;2022-07-29T07:56:38;25.70;71.00
1091;DHT22;534;48.704;9.122;2022-07-29T07:59:05;25.80;72.00
1091;DHT22;534;48.704;9.122;2022-07-29T08:01:31;25.70;71.90
1091;DHT22;534;48.704;9.122;2022-07-29T08:03:58;25.70;71.80
1091;DHT22;534;48.704;9.122;2022-07-29T08:06:25;25.60;71.70
1091;DHT22;534;48.704;9.122;2022-07-29T08:08:53;25.70;71.20
1091;DHT22;534;48.704;9.122;2022-07-29T08:11:20;25.90;69.70
1091;DHT22;534;48.704;9.122;2022-07-29T08:13:47;26.30;70.00
1091;DHT22;534;48.704;9.122;2022-07-29T08:16:13;26.30;69.40
1091;DHT22;534;48.704;9.122;2022-07-29T08:18:42;26.30;68.90
1091;DHT22;534;48.704;9.122;2022-07-29T08:21:09;26.20;69.50
1091;DHT22;534;48.704;9.122;2022-07-29T08:23:36;26.10;68.40
1091;DHT22;534;48.704;9.122;2022-07-29T08:26:06;26.20;70.40
1091;DHT22;534;48.704;9.122;2022-07-29T08:28:36;26.50;68.40
1091;DHT22;534;48.704;9.122;2022-07-29T08:31:03;26.30;69.80
1091;DHT22;534;48.704;9.122;2022-07-29T08:33:29;26.20;69.60
1091;DHT22;534;48.704;9.122;2022-07-29T08:35:56;26.20;70.40
1091;DHT22;534;48.704;9.122;2022-07-29T08:38:23;26.30;70.00
1091;DHT22;534;48.704;9.122;2022-07-29T08:40:51;26.50;69.70
1091;DHT22;534;48.704;9.122;2022-07-29T08:43:19;26.40;70.70
1091;DHT22;534;48.704;9.122;2022-07-29T08:45:48;26.40;68.80
1091;DHT22;534;48.704;9.122;2022-07-29T08:48:16;26.30;69.30
1091;DHT22;534;48.704;9.122;2022-07-29T08:50:45;26.40;68.80
1091;DHT22;534;48.704;9.122;2022-07-29T08:53:13;26.40;69.10
1091;DHT22;534;48.704;9.122;2022-07-29T08:55:43;26.70;69.00
1091;DHT22;534;48.704;9.122;2022-07-29T08:58:10;26.80;68.10
1091;DHT22;534;48.704;9.122;2022-07-29T09:00:42;26.80;68.10
1091;DHT22;534;48.704;9.122;2022-07-29T09:03:10;26.70;68.10
1091;DHT22;534;48.704;9.122;2022-07-29T09:05:41;26.70;69.70
1091;DHT22;534;48.704;9.122;2022-07-29T09:08:08;27.00;66.60
1091;DHT22;534;48.704;9.122;2022-07-29T09:10:36;27.30;66.60
1091;DHT22;534;48.704;9.122;2022-07-29T09:13:03;27.30;66.30
1091;DHT22;534;48.704;9.122;2022-07-29T09:15:30;27.60;63.70
1091;DHT22;534;48.704;9.122;2022-07-29T09:17:58;27.90;63.30
1091;DHT22;534;48.704;9.122;2022-07-29T09:20:26;28.00;62.60
1091;DHT22;534;48.704;9.122;2022-07-29T09:23:13;27.90;62.40
1091;DHT22;534;48.704;9.122;2022-07-29T09:25:40;27.90;62.90
1091;DHT22;534;48.704;9.122;2022-07-29T09:28:08;28.20;61.90
1091;DHT22;534;48.704;9.122;2022-07-29T09:30:35;28.50;62.40
1091;DHT22;534;48.704;9.122;2022-07-29T09:33:03;28.40;60.70
1091;DHT22;534;48.704;9.122;2022-07-29T09:35:30;28.10;61.40
1091;DHT22;534;48.704;9.122;2022-07-29T09:37:57;27.90;61.20
1091;DHT22;534;48.704;9.122;2022-07-29T09:40:25;28.00;61.70
1091;DHT22;534;48.704;9.122;2022-07-29T09:42:52;27.70;60.10
1091;DHT22;534;48.704;9.122;2022-07-29T09:45:28;27.80;61.30
1091;DHT22;534;48.704;9.122;2022-07-29T09:47:56;28.00;61.50
1091;DHT22;534;48.704;9.122;2022-07-29T09:50:37;28.20;60.70
1091;DHT22;534;48.704;9.122;2022-07-29T09:53:04;28.20;59.30
1091;DHT22;534;48.704;9.122;2022-07-29T09:55:30;28.00;60.10
1091;DHT22;534;48.704;9.122;2022-07-29T09:58:15;28.10;60.30
1091;DHT22;534;48.704;9.122;2022-07-29T10:00:42;28.50;60.70
1091;DHT22;534;48.704;9.122;2022-07-29T10:03:09;28.30;59.20
1091;DHT22;534;48.704;9.122;2022-07-29T10:05:38;28.10;59.60
1091;DHT22;534;48.704;9.122;2022-07-29T10:08:05;27.90;58.90
1091;DHT22;534;48.704;9.122;2022-07-29T10:10:34;28.10;59.20
1091;DHT22;534;48.704;9.122;2022-07-29T10:13:02;28.10;60.00
1091;DHT22;534;48.704;9.122;2022-07-29T10:15:30;28.20;61.70
1091;DHT22;534;48.704;9.122;2022-07-29T10:17:58;28.50;59.00
1091;DHT22;534;48.704;9.122;2022-07-29T10:20:27;28.70;58.70
1091;DHT22;534;48.704;9.122;2022-07-29T10:22:55;28.80;57.20
1091;DHT22;534;48.704;9.122;2022-07-29T10:25:23;28.80;56.90
1091;DHT22;534;48.704;9.122;2022-07-29T10:27:50;28.70;56.30
1091;DHT22;534;48.704;9.122;2022-07-29T10:30:18;28.60;56.70
1091;DHT22;534;48.704;9.122;2022-07-29T10:33:05;28.80;55.20
1091;DHT22;534;48.704;9.122;2022-07-29T10:35:44;28.80;55.70
1091;DHT22;534;48.704;9.122;2022-07-29T10:38:30;28.90;55.10
1091;DHT22;534;48.704;9.122;2022-07-29T10:41:11;29.20;55.20
1091;DHT22;534;48.704;9.122;2022-07-29T10:43:58;29.20;54.80
1091;DHT22;534;48.704;9.122;2022-07-29T10:46:25;29.30;55.20
1091;DHT22;534;48.704;9.122;2022-07-29T10:49:10;29.30;54.40
1091;DHT22;534;48.704;9.122;2022-07-29T10:52:07;29.20;55.70
1091;DHT22;534;48.704;9.122;2022-07-29T10:54:46;29.10;55.70
1091;DHT22;534;48.704;9.122;2022-07-29T10:57:20;28.80;56.60
1091;DHT22;534;48.704;9.122;2022-07-29T10:59:48;28.40;56.90
1091;DHT22;534;48.704;9.122;2022-07-29T11:02:41;27.80;58.80
1091;DHT22;534;48.704;9.122;2022-07-29T11:05:10;27.10;61.00
1091;DHT22;534;48.704;9.122;2022-07-29T11:07:38;26.80;64.00
1091;DHT22;534;48.704;9.122;2022-07-29T11:10:23;26.60;65.20
1091;DHT22;534;48.704;9.122;2022-07-29T11:12:50;26.30;64.90
1091;DHT22;534;48.704;9.122;2022-07-29T11:15:19;26.10;65.60
1091;DHT22;534;48.704;9.122;2022-07-29T11:18:06;25.90;66.50
1091;DHT22;534;48.704;9.122;2022-07-29T11:20:37;25.70;68.70
1091;DHT22;534;48.704;9.122;2022-07-29T11:23:19;25.40;69.70
1091;DHT22;534;48.704;9.122;2022-07-29T11:26:14;25.10;70.30
1091;DHT22;534;48.704;9.122;2022-07-29T11:28:51;25.00;69.90
1091;DHT22;534;48.704;9.122;2022-07-29T11:31:30;24.80;73.40
1091;DHT22;534;48.704;9.122;2022-07-29T11:34:19;24.80;72.10
1091;DHT22;534;48.704;9.122;2022-07-29T11:37:20;24.70;71.50
1091;DHT22;534;48.704;9.122;2022-07-29T11:40:12;24.60;71.80
1091;DHT22;534;48.704;9.122;2022-07-29T11:42:42;24.50;71.80
1091;DHT22;534;48.704;9.122;2022-07-29T11:45:11;24.50;73.20
1091;DHT22;534;48.704;9.122;2022-07-29T11:47:40;24.40;74.90
1091;DHT22;534;48.704;9.122;2022-07-29T11:50:09;24.10;76.00
1091;DHT22;534;48.704;9.122;2022-07-29T11:52:37;24.00;75.50
1091;DHT22;534;48.704;9.122;2022-07-29T11:55:10;23.70;76.70
1091;DHT22;534;48.704;9.122;2022-07-29T11:57:46;23.50;77.50
1091;DHT22;534;48.704;9.122;2022-07-29T12:00:22;23.30;77.70
1091;DHT22;534;48.704;9.122;2022-07-29T12:02:49;23.00;78.60
1091;DHT22;534;48.704;9.122;2022-07-29T12:05:16;23.10;78.10
1091;DHT22;534;48.704;9.122;2022-07-29T12:07:43;23.20;78.80
1091;DHT22;534;48.704;9.122;2022-07-29T12:10:10;23.30;79.30
1091;DHT22;534;48.704;9.122;2022-07-29T12:12:37;23.40;78.40
1091;DHT22;534;48.704;9.122;2022-07-29T12:15:13;23.20;75.70
1091;DHT22;534;48.704;9.122;2022-07-29T12:17:40;22.90;76.50
1091;DHT22;534;48.704;9.122;2022-07-29T12:20:07;22.60;78.10
1091;DHT22;534;48.704;9.122;2022-07-29T12:22:36;22.80;78.50
1091;DHT22;534;48.704;9.122;2022-07-29T12:25:05;23.00;78.00
1091;DHT22;534;48.704;9.122;2022-07-29T12:27:33;23.20;78.50
1091;DHT22;534;48.704;9.122;2022-07-29T12:30:01;23.40;79.10
1091;DHT22;534;48.704;9.122;2022-07-29T12:32:34;23.70;79.20
1091;DHT22;534;48.704;9.122;2022-07-29T12:35:04;23.90;76.70
1091;DHT22;534;48.704;9.122;2022-07-29T12:37:32;24.20;77.30
1091;DHT22;534;48.704;9.122;2022-07-29T12:39:59;24.30;76.80
1091;DHT22;534;48.704;9.122;2022-07-29T12:42:26;24.20;77.00
1091;DHT22;534;48.704;9.122;2022-07-29T12:44:52;23.90;75.50
1091;DHT22;534;48.704;9.122;2022-07-29T12:47:20;23.80;77.50
1091;DHT22;534;48.704;9.122;2022-07-29T12:49:49;23.90;76.30
1091;DHT22;534;48.704;9.122;2022-07-29T12:52:26;23.90;75.30
1091;DHT22;534;48.704;9.122;2022-07-29T12:54:53;24.00;75.50
1091;DHT22;534;48.704;9.122;2022-07-29T12:57:20;24.20;75.20
1091;DHT22;534;48.704;9.122;2022-07-29T13:00:06;24.30;75.70
1091;DHT22;534;48.704;9.122;2022-07-29T13:02:34;24.30;75.40
1091;DHT22;534;48.704;9.122;2022-07-29T13:05:04;24.40;75.10
1091;DHT22;534;48.704;9.122;2022-07-29T13:07:33;24.40;75.00
1091;DHT22;534;48.704;9.122;2022-07-29T13:10:12;24.20;77.00
1091;DHT22;534;48.704;9.122;2022-07-29T13:13:03;24.20;77.00
1091;DHT22;534;48.704;9.122;2022-07-29T13:15:30;24.00;76.30
1091;DHT22;534;48.704;9.122;2022-07-29T13:17:57;23.60;76.50
1091;DHT22;534;48.704;9.122;2022-07-29T13:20:28;23.20;77.10
1091;DHT22;534;48.704;9.122;2022-07-29T13:22:56;23.00;79.60
1091;DHT22;534;48.704;9.122;2022-07-29T13:25:24;22.90;80.20
1091;DHT22;534;48.704;9.122;2022-07-29T13:27:51;22.70;81.20
1091;DHT22;534;48.704;9.122;2022-07-29T13:30:20;22.60;81.10
1091;DHT22;534;48.704;9.122;2022-07-29T13:32:47;22.70;81.80
1091;DHT22;534;48.704;9.122;2022-07-29T13:35:14;22.90;81.60
1091;DHT22;534;48.704;9.122;2022-07-29T13:37:43;23.10;81.20
1091;DHT22;534;48.704;9.122;2022-07-29T13:40:11;23.20;80.20
1091;DHT22;534;48.704;9.122;2022-07-29T13:42:38;23.30;79.80
1091;DHT22;534;48.704;9.122;2022-07-29T13:45:06;23.50;80.00
1091;DHT22;534;48.704;9.122;2022-07-29T13:47:33;23.80;78.30
1091;DHT22;534;48.704;9.122;2022-07-29T13:50:00;23.80;77.90
1091;DHT22;534;48.704;9.122;2022-07-29T13:52:26;23.50;80.30
1091;DHT22;534;48.704;9.122;2022-07-29T13:54:54;23.50;81.10
1091;DHT22;534;48.704;9.122;2022-07-29T13:57:21;23.60;81.70
1091;DHT22;534;48.704;9.122;2022-07-29T13:59:48;23.70;78.70
1091;DHT22;534;48.704;9.122;2022-07-29T14:02:16;23.80;80.40
1091;DHT22;534;48.704;9.122;2022-07-29T14:04:43;24.20;80.00
1091;DHT22;534;48.704;9.122;2022-07-29T14:07:09;24.30;78.00
1091;DHT22;534;48.704;9.122;2022-07-29T14:09:36;24.60;79.10
1091;DHT22;534;48.704;9.122;2022-07-29T14:12:05;24.90;78.80
1091;DHT22;534;48.704;9.122;2022-07-29T14:14:31;25.10;76.50
1091;DHT22;534;48.704;9.122;2022-07-29T14:16:58;25.10;74.60
1091;DHT22;534;48.704;9.122;2022-07-29T14:19:25;25.20;74.60
1091;DHT22;534;48.704;9.122;2022-07-29T14:21:51;25.20;74.10
1091;DHT22;534;48.704;9.122;2022-07-29T14:24:18;25.20;75.30
1091;DHT22;534;48.704;9.122;2022-07-29T14:26:45;25.30;77.70
1091;DHT22;534;48.704;9.122;2022-07-29T14:29:13;25.30;76.40
1091;DHT22;534;48.704;9.122;2022-07-29T14:31:39;25.30;77.10
1091;DHT22;534;48.704;9.122;2022-07-29T14:34:06;25.40;75.50
1091;DHT22;534;48.704;9.122;2022-07-29T14:36:32;25.20;75.50
1091;DHT22;534;48.704;9.122;2022-07-29T14:39:00;25.10;76.60
1091;DHT22;534;48.704;9.122;2022-07-29T14:41:26;25.20;75.80
1091;DHT22;534;48.704;9.122;2022-07-29T14:43:53;25.30;75.70
1091;DHT22;534;48.704;9.122;2022-07-29T14:46:21;25.30;75.90
1091;DHT22;534;48.704;9.122;2022-07-29T14:48:48;25.50;75.90
1091;DHT22;534;48.704;9.122;2022-07-29T14:51:15;25.60;76.10
1091;DHT22;534;48.704;9.122;2022-07-29T14:53:42;25.70;76.10
1091;DHT22;534;48.704;9.122;2022-07-29T14:56:09;25.80;74.50
1091;DHT22;534;48.704;9.122;2022-07-29T14:58:36;26.00;75.70
1091;DHT22;534;48.704;9.122;2022-07-29T15:01:03;25.90;74.80
1091;DHT22;534;48.704;9.122;2022-07-29T15:03:31;26.00;75.80
1091;DHT22;534;48.704;9.122;2022-07-29T15:05:58;26.20;75.80
1091;DHT22;534;48.704;9.122;2022-07-29T15:08:24;26.20;75.50
1091;DHT22;534;48.704;9.122;2022-07-29T15:10:53;26.10;75.80
1091;DHT22;534;48.704;9.122;2022-07-29T15:13:32;25.80;76.40
1091;DHT22;534;48.704;9.122;2022-07-29T15:15:59;25.40;78.20
1091;DHT22;534;48.704;9.122;2022-07-29T15:18:26;25.10;79.60
1091;DHT22;534;48.704;9.122;2022-07-29T15:20:54;25.00;80.00
1091;DHT22;534;48.704;9.122;2022-07-29T15:23:20;24.90;80.20
1091;DHT22;534;48.704;9.122;2022-07-29T15:25:47;24.90;79.70
1091;DHT22;534;48.704;9.122;2022-07-29T15:28:14;24.70;79.80
1091;DHT22;534;48.704;9.122;2022-07-29T15:30:40;24.50;78.10
1091;DHT22;534;48.704;9.122;2022-07-29T15:33:08;24.50;78.40
1091;DHT22;534;48.704;9.122;2022-07-29T15:35:35;24.40;77.50
1091;DHT22;534;48.704;9.122;2022-07-29T15:38:03;24.20;76.50
1091;DHT22;534;48.704;9.122;2022-07-29T15:40:30;24.10;77.50
1091;DHT22;534;48.704;9.122;2022-07-29T15:42:56;24.00;78.70
1091;DHT22;534;48.704;9.122;2022-07-29T15:45:26;24.10;79.60
1091;DHT22;534;48.704;9.122;2022-07-29T15:47:53;24.20;79.70
1091;DHT22;534;48.704;9.122;2022-07-29T15:50:19;24.20;78.90
1091;DHT22;534;48.704;9.122;2022-07-29T15:52:46;24.40;79.70
1091;DHT22;534;48.704;9.122;2022-07-29T15:55:14;24.40;79.70
1091;DHT22;534;48.704;9.122;2022-07-29T15:57:41;24.50;79.70
1091;DHT22;534;48.704;9.122;2022-07-29T16:00:09;24.40;79.50
1091;DHT22;534;48.704;9.122;2022-07-29T16:02:36;24.40;79.10
1091;DHT22;534;48.704;9.122;2022-07-29T16:05:03;24.50;79.80
1091;DHT22;534;48.704;9.122;2022-07-29T16:07:30;24.50;78.90
1091;DHT22;534;48.704;9.122;2022-07-29T16:09:56;24.50;79.10
1091;DHT22;534;48.704;9.122;2022-07-29T16:12:24;24.40;79.80
1091;DHT22;534;48.704;9.122;2022-07-29T16:14:51;24.30;80.70
1091;DHT22;534;48.704;9.122;2022-07-29T16:17:18;24.20;80.60
1091;DHT22;534;48.704;9.122;2022-07-29T16:19:45;24.20;81.00
1091;DHT22;534;48.704;9.122;2022-07-29T16:22:12;24.20;80.50
1091;DHT22;534;48.704;9.122;2022-07-29T16:24:39;24.20;81.00
1091;DHT22;534;48.704;9.122;2022-07-29T16:27:06;24.20;81.20
1091;DHT22;534;48.704;9.122;2022-07-29T16:29:34;24.40;80.50
1091;DHT22;534;48.704;9.122;2022-07-29T16:32:03;24.50;80.30
1091;DHT22;534;48.704;9.122;2022-07-29T16:34:30;24.40;78.00
1091;DHT22;534;48.704;9.122;2022-07-29T16:36:56;24.50;78.50
1091;DHT22;534;48.704;9.122;2022-07-29T16:39:23;24.50;78.10
1091;DHT22;534;48.704;9.122;2022-07-29T16:41:49;24.30;78.30
1091;DHT22;534;48.704;9.122;2022-07-29T16:44:16;24.40;78.90
1091;DHT22;534;48.704;9.122;2022-07-29T16:46:44;24.40;77.60
1091;DHT22;534;48.704;9.122;2022-07-29T16:49:11;24.30;78.10
1091;DHT22;534;48.704;9.122;2022-07-29T16:51:38;24.20;78.80
1091;DHT22;534;48.704;9.122;2022-07-29T16:54:05;24.20;78.40
1091;DHT22;534;48.704;9.122;2022-07-29T16:56:33;24.10;78.30
1091;DHT22;534;48.704;9.122;2022-07-29T16:58:59;24.10;78.60
1091;DHT22;534;48.704;9.122;2022-07-29T17:01:26;24.40;78.20
1091;DHT22;534;48.704;9.122;2022-07-29T17:03:54;24.30;78.00
1091;DHT22;534;48.704;9.122;2022-07-29T17:06:34;24.30;78.20
1091;DHT22;534;48.704;9.122;2022-07-29T17:09:02;24.40;77.40
1091;DHT22;534;48.704;9.122;2022-07-29T17:11:30;24.40;77.30
1091;DHT22;534;48.704;9.122;2022-07-29T17:13:57;24.50;76.40
1091;DHT22;534;48.704;9.122;2022-07-29T17:16:24;24.50;75.00
1091;DHT22;534;48.704;9.122;2022-07-29T17:18:52;24.50;75.20
1091;DHT22;534;48.704;9.122;2022-07-29T17:21:21;24.70;75.60
1091;DHT22;534;48.704;9.122;2022-07-29T17:23:48;24.70;74.40
1091;DHT22;534;48.704;9.122;2022-07-29T17:26:15;24.50;74.40
1091;DHT22;534;48.704;9.122;2022-07-29T17:28:42;24.50;74.10
1091;DHT22;534;48.704;9.122;2022-07-29T17:31:09;24.60;74.80
1091;DHT22;534;48.704;9.122;2022-07-29T17:33:36;24.70;74.50
1091;DHT22;534;48.704;9.122;2022-07-29T17:36:04;24.70;74.50
1091;DHT22;534;48.704;9.122;2022-07-29T17:38:50;24.60;74.90
1091;DHT22;534;48.704;9.122;2022-07-29T17:41:17;24.60;75.30
1091;DHT22;534;48.704;9.122;2022-07-29T17:43:44;24.60;75.50
1091;DHT22;534;48.704;9.122;2022-07-29T17:46:11;24.70;75.00
1091;DHT22;534;48.704;9.122;2022-07-29T17:48:37;24.80;75.10
1091;DHT22;534;48.704;9.122;2022-07-29T17:51:04;24.90;75.10
1091;DHT22;534;48.704;9.122;2022-07-29T17:53:31;24.90;75.00
1091;DHT22;534;48.704;9.122;2022-07-29T17:55:59;25.00;75.50
1091;DHT22;534;48.704;9.122;2022-07-29T17:58:25;25.20;75.30
1091;DHT22;534;48.704;9.122;2022-07-29T18:00:52;25.30;75.30
1091;DHT22;534;48.704;9.122;2022-07-29T18:03:19;25.40;75.60
1091;DHT22;534;48.704;9.122;2022-07-29T18:05:45;25.50;75.60
1091;DHT22;534;48.704;9.122;2022-07-29T18:08:14;25.60;74.90
1091;DHT22;534;48.704;9.122;2022-07-29T18:10:41;25.60;74.90
1091;DHT22;534;48.704;9.122;2022-07-29T18:13:09;25.70;74.80
1091;DHT22;534;48.704;9.122;2022-07-29T18:15:37;25.80;74.70
1091;DHT22;534;48.704;9.122;2022-07-29T18:18:04;25.80;74.10
1091;DHT22;534;48.704;9.122;2022-07-29T18:20:31;25.70;74.40
1091;DHT22;534;48.704;9.122;2022-07-29T18:22:58;25.70;73.80
1091;DHT22;534;48.704;9.122;2022-07-29T18:25:25;25.80;73.40
1091;DHT22;534;48.704;9.122;2022-07-29T18:27:53;25.70;73.50
1091;DHT22;534;48.704;9.122;2022-07-29T18:30:21;25.80;73.50
1091;DHT22;534;48.704;9.122;2022-07-29T18:32:48;25.70;73.40
1091;DHT22;534;48.704;9.122;2022-07-29T18:35:15;25.70;73.40
1091;DHT22;534;48.704;9.122;2022-07-29T18:37:42;25.70;72.90
1091;DHT22;534;48.704;9.122;2022-07-29T18:40:09;25.70;73.60
1091;DHT22;534;48.704;9.122;2022-07-29T18:42:36;25.70;74.30
1091;DHT22;534;48.704;9.122;2022-07-29T18:45:05;25.60;73.20
1091;DHT22;534;48.704;9.122;2022-07-29T18:47:34;25.50;72.80
1091;DHT22;534;48.704;9.122;2022-07-29T18:50:01;25.40;73.50
1091;DHT22;534;48.704;9.122;2022-07-29T18:52:28;25.50;73.20
1091;DHT22;534;48.704;9.122;2022-07-29T18:54:54;25.40;74.10
1091;DHT22;534;48.704;9.122;2022-07-29T18:57:21;25.40;74.00
1091;DHT22;534;48.704;9.122;2022-07-29T18:59:48;25.40;73.80
1091;DHT22;534;48.704;9.122;2022-07-29T19:02:16;25.30;71.80
1091;DHT22;534;48.704;9.122;2022-07-29T19:04:43;25.00;71.60
1091;DHT22;534;48.704;9.122;2022-07-29T19:07:10;25.00;72.60
1091;DHT22;534;48.704;9.122;2022-07-29T19:09:37;25.00;72.10
1091;DHT22;534;48.704;9.122;2022-07-29T19:12:04;25.00;72.40
1091;DHT22;534;48.704;9.122;2022-07-29T19:14:31;25.00;72.60
1091;DHT22;534;48.704;9.122;2022-07-29T19:16:58;25.00;72.60
1091;DHT22;534;48.704;9.122;2022-07-29T19:19:24;25.00;72.30
1091;DHT22;534;48.704;9.122;2022-07-29T19:21:52;24.80;71.20
1091;DHT22;534;48.704;9.122;2022-07-29T19:24:19;24.60;70.90
1091;DHT22;534;48.704;9.122;2022-07-29T19:26:46;24.50;72.20